Time;durP1;ratioP1;P1;durP2;ratioP2;P2;SDS_P1;SDS_P2;PMS_P1;PMS_P2;Temp;Humidity;BMP_temperature;BMP_pressure;BME280_temperature;BME280_humidity;BME280_pressure;Samples;Min_cycle;Max_cycle;Signal;HPM_P1;HPM_P2
2023/10/30 00:01:55;;;;;;;10.50;3.87;;;;;;;13.34;77.13;99086.59;4225148;28;22569;-78
2023/10/30 00:04:22;;;;;;;13.13;3.70;;;;;;;13.36;77.13;99088.13;4217628;28;20231;-77
2023/10/30 00:06:48;;;;;;;11.47;3.53;;;;;;;13.29;77.40;99103.53;4210529;28;20576;-74
2023/10/30 00:09:17;;;;;;;11.50;3.40;;;;;;;13.38;77.23;99106.94;4225729;28;20766;-74
2023/10/30 00:11:46;;;;;;;9.47;3.40;;;;;;;13.40;76.95;99107.63;4217774;28;20323;-77
2023/10/30 00:14:13;;;;;;;9.83;3.37;;;;;;;13.35;77.14;99093.72;4221678;28;23555;-75
2023/10/30 00:16:40;;;;;;;10.03;3.50;;;;;;;13.37;77.16;99094.38;4221065;28;20235;-76
2023/10/30 00:19:06;;;;;;;8.20;3.40;;;;;;;13.23;77.16;99096.16;4221489;28;20303;-76
2023/10/30 00:21:33;;;;;;;11.30;3.77;;;;;;;13.27;77.46;99108.31;4227878;28;21760;-75
2023/10/30 00:24:01;;;;;;;10.70;3.87;;;;;;;13.20;77.60;99112.88;4227762;28;22979;-75
2023/10/30 00:26:29;;;;;;;10.67;4.00;;;;;;;13.04;78.26;99119.41;4219900;28;22732;-75
2023/10/30 00:28:57;;;;;;;11.83;4.20;;;;;;;12.91;78.81;99126.41;4218302;28;20453;-76
2023/10/30 00:31:24;;;;;;;11.80;3.93;;;;;;;12.94;79.06;99141.47;4218764;28;20430;-73
2023/10/30 00:33:51;;;;;;;10.30;3.40;;;;;;;12.91;78.93;99142.72;4218770;28;20240;-76
2023/10/30 00:36:18;;;;;;;7.50;3.70;;;;;;;12.75;79.60;99168.25;4214982;28;20671;-74
2023/10/30 00:38:45;;;;;;;13.03;3.40;;;;;;;12.71;80.05;99169.66;4222746;28;20231;-75
2023/10/30 00:41:11;;;;;;;9.30;3.87;;;;;;;12.83;79.73;99159.13;4225162;28;20243;-73
2023/10/30 00:43:38;;;;;;;13.37;3.90;;;;;;;12.88;79.40;99151.22;4216347;28;22738;-74
2023/10/30 00:46:06;;;;;;;12.03;4.00;;;;;;;12.89;79.25;99152.91;4218118;28;20679;-75
2023/10/30 00:48:34;;;;;;;10.83;3.93;;;;;;;12.79;79.65;99152.41;4220132;28;20236;-75
2023/10/30 00:51:01;;;;;;;9.63;4.00;;;;;;;12.68;80.26;99151.06;4228725;28;20235;-75
2023/10/30 00:53:27;;;;;;;7.73;3.70;;;;;;;12.72;79.84;99148.81;4220574;28;20243;-74
2023/10/30 00:55:54;;;;;;;11.37;3.90;;;;;;;12.74;80.40;99142.13;4220453;28;20236;-74
2023/10/30 00:58:20;;;;;;;14.57;4.10;;;;;;;12.63;80.92;99146.22;4227627;28;20233;-75
2023/10/30 01:00:47;;;;;;;11.17;3.73;;;;;;;12.57;80.97;99149.69;4219212;28;20239;-75
2023/10/30 01:03:15;;;;;;;11.73;4.03;;;;;;;12.72;80.63;99154.22;4218986;28;20609;-73
2023/10/30 01:05:42;;;;;;;12.27;3.93;;;;;;;12.73;80.20;99155.88;4218292;28;20596;-74
2023/10/30 01:08:08;;;;;;;11.17;4.10;;;;;;;12.69;80.34;99155.44;4212954;28;20446;-75
2023/10/30 01:10:36;;;;;;;10.67;3.87;;;;;;;12.63;80.79;99138.06;4222256;28;20241;-75
2023/10/30 01:13:04;;;;;;;10.00;3.83;;;;;;;12.56;81.01;99123.56;4223820;28;20239;-76
2023/10/30 01:15:30;;;;;;;12.17;3.67;;;;;;;12.74;80.32;99130.41;4222917;28;20239;-73
2023/10/30 01:17:57;;;;;;;10.47;4.00;;;;;;;12.63;80.87;99124.50;4216908;28;20243;-72
2023/10/30 01:20:23;;;;;;;10.03;3.90;;;;;;;12.58;80.86;99121.50;4222011;28;20501;-74
2023/10/30 01:22:50;;;;;;;11.20;4.23;;;;;;;12.57;80.94;99125.25;4224206;28;21648;-72
2023/10/30 01:25:17;;;;;;;12.60;4.33;;;;;;;12.52;80.99;99120.41;4215951;28;21561;-74
2023/10/30 01:27:43;;;;;;;11.90;4.47;;;;;;;12.53;80.96;99113.09;4216422;28;20282;-75
2023/10/30 01:30:11;;;;;;;12.13;3.97;;;;;;;12.53;81.06;99115.81;4217105;28;20337;-75
2023/10/30 01:32:38;;;;;;;14.80;4.77;;;;;;;12.63;80.88;99118.19;4212495;28;21923;-74
2023/10/30 01:35:04;;;;;;;12.57;3.60;;;;;;;12.55;81.27;99123.75;4215155;28;20235;-75
2023/10/30 01:37:31;;;;;;;10.53;4.47;;;;;;;12.48;81.39;99129.94;4217998;28;20223;-75
2023/10/30 01:39:57;;;;;;;13.67;4.20;;;;;;;12.43;81.50;99123.41;4219192;28;20228;-76
2023/10/30 01:42:24;;;;;;;11.83;3.60;;;;;;;12.46;81.59;99109.47;4222445;28;20239;-73
2023/10/30 01:44:58;;;;;;;13.67;4.90;;;;;;;12.32;82.10;99103.91;4223079;28;20289;-75
2023/10/30 01:47:25;;;;;;;13.77;4.77;;;;;;;12.48;81.48;99096.56;4233379;28;23326;-73
2023/10/30 01:49:52;;;;;;;11.17;4.57;;;;;;;12.40;81.97;99097.50;4219868;28;20238;-73
2023/10/30 01:52:20;;;;;;;10.33;4.37;;;;;;;12.31;82.15;99093.25;4223352;28;20413;-73
2023/10/30 01:54:48;;;;;;;12.73;4.67;;;;;;;12.18;82.75;99092.06;4219881;28;20258;-74
2023/10/30 01:57:17;;;;;;;12.30;4.70;;;;;;;12.04;83.48;99095.63;4216443;28;20284;-73
2023/10/30 01:59:45;;;;;;;14.07;4.83;;;;;;;11.99;83.63;99101.63;4225701;28;21144;-74
2023/10/30 02:02:12;;;;;;;10.67;4.33;;;;;;;12.11;83.23;99109.28;4208930;28;20263;-75
2023/10/30 02:04:39;;;;;;;13.37;4.50;;;;;;;12.03;83.62;99100.25;4230286;28;20227;-75
2023/10/30 02:07:05;;;;;;;13.33;4.57;;;;;;;12.03;83.50;99091.25;4218436;28;20307;-73
2023/10/30 02:09:32;;;;;;;13.10;4.43;;;;;;;11.98;83.74;99099.13;4222898;28;20788;-75
2023/10/30 02:11:59;;;;;;;10.10;3.87;;;;;;;11.81;84.64;99109.31;4224102;28;20379;-74
2023/10/30 02:14:26;;;;;;;13.20;4.20;;;;;;;11.74;85.19;99109.19;4217802;28;20235;-74
2023/10/30 02:16:52;;;;;;;11.87;4.70;;;;;;;11.91;84.39;99117.16;4219261;28;20240;-73
2023/10/30 02:19:22;;;;;;;9.77;4.13;;;;;;;11.90;84.44;99124.41;4227149;28;21058;-74
2023/10/30 02:21:54;;;;;;;9.17;3.87;;;;;;;11.81;84.97;99120.16;4237761;28;20371;-74
2023/10/30 02:24:21;;;;;;;12.93;4.43;;;;;;;11.79;85.25;99124.91;4221698;28;22271;-72
2023/10/30 02:26:49;;;;;;;12.23;4.40;;;;;;;11.84;84.89;99131.47;4213783;28;23273;-74
2023/10/30 02:29:17;;;;;;;10.03;3.93;;;;;;;11.86;84.84;99131.25;4217162;28;20589;-76
2023/10/30 02:31:44;;;;;;;7.70;3.93;;;;;;;11.93;84.46;99134.06;4216669;28;20308;-75
2023/10/30 02:34:11;;;;;;;17.27;4.70;;;;;;;11.92;84.63;99135.94;4231095;28;20238;-76
2023/10/30 02:36:38;;;;;;;15.43;4.10;;;;;;;11.86;85.14;99123.13;4224616;28;22642;-76
2023/10/30 02:39:07;;;;;;;12.70;4.40;;;;;;;11.93;84.86;99131.38;4231179;28;22038;-78
2023/10/30 02:41:34;;;;;;;11.50;3.80;;;;;;;11.89;85.01;99128.19;4221711;28;20289;-74
2023/10/30 02:44:01;;;;;;;10.17;3.87;;;;;;;11.84;84.92;99130.59;4218960;28;20330;-75
2023/10/30 02:46:28;;;;;;;16.30;4.10;;;;;;;11.80;85.51;99116.59;4228853;28;20244;-79
2023/10/30 02:48:55;;;;;;;10.70;4.17;;;;;;;11.60;86.75;99110.88;4224854;28;20228;-74
2023/10/30 02:51:22;;;;;;;14.67;4.40;;;;;;;11.68;85.93;99105.38;4217607;28;20641;-77
2023/10/30 02:53:48;;;;;;;9.40;4.10;;;;;;;11.80;85.80;99097.59;4214814;28;20235;-76
2023/10/30 02:56:15;;;;;;;12.93;4.67;;;;;;;11.68;86.01;99101.84;4221277;28;22946;-78
2023/10/30 02:58:42;;;;;;;9.93;4.30;;;;;;;11.52;87.08;99109.13;4205334;28;20245;-79
2023/10/30 03:01:09;;;;;;;10.33;3.93;;;;;;;11.69;86.03;99100.81;4221661;28;21662;-74
2023/10/30 03:03:35;;;;;;;13.33;4.03;;;;;;;11.70;86.27;99106.03;4219330;28;20240;-75
2023/10/30 03:06:02;;;;;;;12.70;4.10;;;;;;;11.56;86.92;99101.47;4217752;28;20286;-75
2023/10/30 03:08:29;;;;;;;11.97;3.73;;;;;;;11.67;86.76;99102.84;4225382;28;20689;-74
2023/10/30 03:10:56;;;;;;;13.43;4.33;;;;;;;11.71;86.48;99098.72;4217376;28;20298;-78
2023/10/30 03:13:23;;;;;;;16.50;4.57;;;;;;;11.57;87.17;99095.84;4217136;28;21282;-77
2023/10/30 03:15:49;;;;;;;12.53;3.97;;;;;;;11.58;87.63;99094.81;4225564;28;26280;-74
2023/10/30 03:18:16;;;;;;;8.90;3.90;;;;;;;11.67;86.93;99090.13;4228739;28;20592;-76
2023/10/30 03:20:42;;;;;;;10.93;4.20;;;;;;;11.63;87.19;99083.41;4212936;28;20229;-75
2023/10/30 03:23:09;;;;;;;12.57;4.20;;;;;;;11.82;86.71;99081.16;4224110;28;20869;-74
2023/10/30 03:25:36;;;;;;;13.40;4.83;;;;;;;11.78;86.84;99083.41;4221655;28;20584;-75
2023/10/30 03:28:02;;;;;;;11.37;4.27;;;;;;;11.83;86.05;99082.81;4217009;28;20245;-76
2023/10/30 03:30:34;;;;;;;11.33;4.27;;;;;;;11.88;86.18;99091.25;4233231;28;20386;-74
2023/10/30 03:33:00;;;;;;;17.57;4.37;;;;;;;11.77;86.37;99091.72;4220955;28;20635;-74
2023/10/30 03:35:27;;;;;;;8.77;3.83;;;;;;;11.71;86.60;99094.16;4221453;28;20219;-75
2023/10/30 03:37:53;;;;;;;8.10;3.93;;;;;;;11.71;86.53;99083.31;4219755;28;20579;-78
2023/10/30 03:40:20;;;;;;;13.07;4.10;;;;;;;11.66;86.71;99082.19;4230776;28;20280;-77
2023/10/30 03:42:46;;;;;;;11.33;4.33;;;;;;;11.58;87.47;99081.25;4226200;28;20764;-74
2023/10/30 03:45:13;;;;;;;10.53;4.10;;;;;;;11.45;87.85;99081.09;4218372;28;20552;-76
2023/10/30 03:47:42;;;;;;;16.07;4.47;;;;;;;11.50;87.63;99072.41;4223469;28;20288;-76
2023/10/30 03:50:10;;;;;;;9.10;3.40;;;;;;;11.47;87.72;99073.63;4235168;28;20232;-75
2023/10/30 03:52:36;;;;;;;14.40;4.60;;;;;;;11.25;89.11;99078.06;4210601;28;23063;-75
2023/10/30 03:55:05;;;;;;;10.23;4.60;;;;;;;11.30;88.80;99072.94;4222560;28;20231;-75
2023/10/30 03:57:35;;;;;;;11.33;4.40;;;;;;;11.20;89.40;99088.63;4223084;28;25943;-73
2023/10/30 04:00:08;;;;;;;11.17;4.40;;;;;;;11.36;88.57;99096.59;4223087;28;20237;-77
2023/10/30 04:02:35;;;;;;;10.43;4.63;;;;;;;11.31;88.50;99098.19;4209357;28;20258;-75
2023/10/30 04:05:01;;;;;;;10.90;4.40;;;;;;;11.19;89.51;99090.47;4224306;28;20236;-74
2023/10/30 04:07:30;;;;;;;12.17;5.07;;;;;;;11.21;89.06;99084.91;4224420;28;20303;-74
2023/10/30 04:09:56;;;;;;;12.40;4.70;;;;;;;11.03;89.53;99093.34;4218407;28;20235;-74
2023/10/30 04:12:22;;;;;;;13.30;5.37;;;;;;;10.91;90.04;99080.25;4224125;28;20243;-75
2023/10/30 04:14:51;;;;;;;15.43;4.80;;;;;;;10.83;90.41;99080.34;4225268;28;20575;-74
2023/10/30 04:17:17;;;;;;;11.73;5.17;;;;;;;10.73;91.19;99067.06;4220332;28;20231;-76
2023/10/30 04:19:44;;;;;;;15.90;4.80;;;;;;;10.63;91.92;99077.28;4213713;28;21574;-74
2023/10/30 04:22:10;;;;;;;12.77;5.03;;;;;;;10.48;93.14;99095.31;4216124;28;20309;-76
2023/10/30 04:24:37;;;;;;;8.37;4.50;;;;;;;10.53;92.83;99092.94;4221803;28;20875;-75
2023/10/30 04:27:05;;;;;;;10.73;4.77;;;;;;;10.45;93.13;99085.72;4217173;28;20316;-77
2023/10/30 04:29:32;;;;;;;11.13;4.67;;;;;;;10.42;93.33;99092.31;4226528;28;20287;-77
2023/10/30 04:31:58;;;;;;;9.43;5.00;;;;;;;10.47;93.63;99105.31;4218726;28;20232;-75
2023/10/30 04:34:25;;;;;;;13.67;4.67;;;;;;;10.23;95.18;99111.69;4232310;28;22300;-76
2023/10/30 04:36:52;;;;;;;13.27;5.93;;;;;;;10.43;94.39;99115.66;4224187;28;22616;-74
2023/10/30 04:39:19;;;;;;;9.40;5.07;;;;;;;10.49;93.78;99113.25;4219591;28;20301;-75
2023/10/30 04:41:46;;;;;;;15.60;5.03;;;;;;;10.38;95.11;99112.66;4221606;28;20345;-77
2023/10/30 04:44:12;;;;;;;14.80;5.23;;;;;;;10.58;94.38;99115.72;4210385;28;21549;-74
2023/10/30 04:46:40;;;;;;;13.50;5.37;;;;;;;10.59;94.64;99103.03;4218487;28;21776;-74
2023/10/30 04:49:06;;;;;;;14.90;4.43;;;;;;;10.58;94.78;99102.19;4208831;28;20248;-75
2023/10/30 04:51:33;;;;;;;16.20;5.00;;;;;;;10.66;94.44;99111.25;4200686;28;20235;-77
2023/10/30 04:54:00;;;;;;;12.90;4.90;;;;;;;10.69;94.16;99114.44;4217924;28;20223;-77
2023/10/30 04:56:26;;;;;;;16.10;4.63;;;;;;;10.68;94.51;99114.63;4220709;28;20236;-73
2023/10/30 04:58:53;;;;;;;9.67;5.07;;;;;;;10.70;94.56;99101.78;4214564;28;21163;-75
2023/10/30 05:01:19;;;;;;;10.07;4.70;;;;;;;10.72;94.34;99108.69;4218561;28;20236;-75
2023/10/30 05:03:46;;;;;;;9.93;4.73;;;;;;;10.73;94.33;99099.53;4230470;28;21114;-76
2023/10/30 05:06:13;;;;;;;12.50;5.03;;;;;;;10.82;94.21;99104.88;4232787;28;20234;-75
2023/10/30 05:08:39;;;;;;;13.10;5.17;;;;;;;10.83;94.23;99115.53;4220104;28;22088;-75
2023/10/30 05:11:06;;;;;;;9.20;4.30;;;;;;;10.87;93.72;99135.81;4215719;28;20300;-77
2023/10/30 05:13:34;;;;;;;14.33;4.73;;;;;;;10.92;93.04;99144.22;4221349;28;20226;-75
2023/10/30 05:16:01;;;;;;;11.10;4.33;;;;;;;10.98;92.92;99152.63;4214175;28;20612;-75
2023/10/30 05:18:29;;;;;;;14.60;4.60;;;;;;;11.01;92.62;99166.66;4233786;28;21343;-77
2023/10/30 05:20:56;;;;;;;13.43;5.17;;;;;;;10.92;93.36;99160.47;4210673;28;20314;-78
2023/10/30 05:23:24;;;;;;;12.70;4.23;;;;;;;10.87;93.66;99152.06;4228515;28;20707;-77
2023/10/30 05:25:51;;;;;;;12.60;4.53;;;;;;;11.00;92.92;99150.59;4220645;28;20233;-75
2023/10/30 05:28:17;;;;;;;12.03;4.73;;;;;;;10.96;93.43;99146.56;4222577;28;23532;-77
2023/10/30 05:30:44;;;;;;;10.63;4.70;;;;;;;11.03;92.98;99142.94;4222782;28;20227;-74
2023/10/30 05:33:11;;;;;;;12.27;5.00;;;;;;;11.07;92.53;99141.53;4221613;28;20931;-76
2023/10/30 05:35:38;;;;;;;10.60;4.90;;;;;;;11.05;92.90;99145.47;4223570;28;25694;-73
2023/10/30 05:38:05;;;;;;;10.53;4.73;;;;;;;10.92;93.14;99156.91;4216517;28;20232;-76
2023/10/30 05:40:32;;;;;;;11.57;5.10;;;;;;;11.09;92.75;99152.22;4216414;28;20255;-76
2023/10/30 05:42:58;;;;;;;11.47;5.10;;;;;;;11.05;92.68;99159.88;4222719;28;20239;-75
2023/10/30 05:45:25;;;;;;;15.47;4.73;;;;;;;10.99;92.81;99168.69;4232359;28;20508;-75
2023/10/30 05:47:52;;;;;;;13.40;4.67;;;;;;;11.01;92.76;99165.81;4241188;28;20232;-75
2023/10/30 05:50:20;;;;;;;13.03;4.93;;;;;;;11.06;92.55;99156.13;4242728;28;20316;-78
2023/10/30 05:52:46;;;;;;;15.47;5.20;;;;;;;11.08;92.50;99159.47;4237928;28;22924;-72
2023/10/30 05:55:13;;;;;;;13.27;5.20;;;;;;;11.08;92.52;99178.44;4250380;28;22096;-77
2023/10/30 05:57:43;;;;;;;15.80;5.17;;;;;;;11.13;92.57;99177.06;4240282;28;20694;-75
2023/10/30 06:00:10;;;;;;;14.90;5.47;;;;;;;11.20;92.28;99175.31;4247590;28;21107;-74
2023/10/30 06:02:37;;;;;;;12.43;4.83;;;;;;;11.14;92.36;99181.47;4234712;28;20259;-76
2023/10/30 06:05:08;;;;;;;10.83;4.77;;;;;;;11.09;92.72;99184.72;4249902;28;20246;-77
2023/10/30 06:07:35;;;;;;;12.83;4.97;;;;;;;11.04;93.08;99193.38;4225502;28;20323;-77
2023/10/30 06:10:04;;;;;;;14.90;4.50;;;;;;;11.03;93.29;99205.22;4229609;28;20243;-68
2023/10/30 06:12:31;;;;;;;13.70;4.63;;;;;;;11.02;93.00;99211.66;4223461;28;20350;-76
2023/10/30 06:14:58;;;;;;;11.87;5.13;;;;;;;11.17;92.90;99210.88;4227816;28;21436;-73
2023/10/30 06:17:25;;;;;;;12.23;4.60;;;;;;;11.25;92.18;99202.69;4224840;28;20683;-72
2023/10/30 06:19:51;;;;;;;11.23;4.50;;;;;;;11.31;91.75;99204.66;4216984;28;20324;-76
2023/10/30 06:22:18;;;;;;;13.53;4.43;;;;;;;11.34;91.63;99217.00;4220987;28;23252;-73
2023/10/30 06:24:45;;;;;;;12.57;4.80;;;;;;;11.31;91.61;99223.63;4210953;28;20608;-72
2023/10/30 06:27:12;;;;;;;10.40;4.80;;;;;;;11.36;91.55;99229.38;4219565;28;20898;-72
2023/10/30 06:29:38;;;;;;;14.87;4.77;;;;;;;11.37;91.60;99231.03;4221349;28;20236;-71
2023/10/30 06:32:06;;;;;;;16.10;5.63;;;;;;;11.54;92.49;99231.75;4233478;28;20677;-76
2023/10/30 06:34:33;;;;;;;19.43;4.80;;;;;;;11.68;90.38;99231.94;4226260;28;20321;-74
2023/10/30 06:37:00;;;;;;;15.50;4.70;;;;;;;11.75;89.63;99232.91;4219861;28;20299;-75
2023/10/30 06:39:27;;;;;;;12.43;4.33;;;;;;;11.80;88.83;99233.16;4233172;28;20229;-73
2023/10/30 06:59:43;;;;;;;12.07;3.97;;;;;;;12.79;84.68;99231.19;6145626;22;3124562;-82
2023/10/30 07:02:11;;;;;;;13.43;4.20;;;;;;;12.80;84.49;99232.84;6144544;23;20301;-78
2023/10/30 07:04:37;;;;;;;17.90;4.50;;;;;;;12.64;85.19;99244.78;6151067;23;20225;-77
2023/10/30 07:07:05;;;;;;;13.27;4.10;;;;;;;12.76;84.88;99245.13;6154432;23;20235;-76
2023/10/30 07:09:32;;;;;;;14.97;3.87;;;;;;;12.79;84.32;99242.03;6156546;23;20260;-76
2023/10/30 07:11:59;;;;;;;14.77;3.90;;;;;;;12.69;84.60;99234.16;6153529;23;20228;-78
2023/10/30 07:14:25;;;;;;;12.93;4.00;;;;;;;12.79;84.32;99237.44;6159429;23;20209;-78
2023/10/30 07:16:53;;;;;;;12.53;4.03;;;;;;;12.97;83.50;99249.75;6153252;23;20201;-78
2023/10/30 07:19:31;;;;;;;15.90;4.00;;;;;;;12.91;83.56;99250.53;6151509;23;20201;-76
2023/10/30 07:21:58;;;;;;;11.77;3.73;;;;;;;12.89;84.01;99252.59;6154544;23;20202;-77
2023/10/30 07:24:24;;;;;;;9.93;3.50;;;;;;;12.73;84.69;99251.78;6150484;23;20594;-77
2023/10/30 07:26:57;;;;;;;11.57;3.27;;;;;;;12.76;84.87;99259.56;6153599;23;20220;-77
2023/10/30 07:29:25;;;;;;;7.57;3.17;;;;;;;12.77;84.56;99263.94;6128608;23;20213;-78
2023/10/30 07:31:55;;;;;;;7.07;3.17;;;;;;;12.90;84.48;99268.69;6151852;23;20597;-77
2023/10/30 07:34:22;;;;;;;10.17;3.50;;;;;;;13.00;84.11;99266.50;6155459;23;20435;-78
2023/10/30 07:36:49;;;;;;;9.73;3.50;;;;;;;13.17;83.89;99274.41;6152004;23;20205;-77
2023/10/30 07:39:16;;;;;;;11.10;3.60;;;;;;;13.36;82.86;99289.25;6154164;23;20209;-76
2023/10/30 07:41:42;;;;;;;7.50;2.90;;;;;;;13.40;82.23;99289.72;6151654;23;20281;-76
2023/10/30 07:44:33;;;;;;;12.50;3.30;;;;;;;13.47;81.44;99288.75;6158849;23;20228;-75
2023/10/30 07:47:01;;;;;;;7.63;3.20;;;;;;;13.41;81.13;99284.09;6149659;23;20224;-76
2023/10/30 07:49:27;;;;;;;10.03;3.40;;;;;;;13.63;80.71;99284.06;6134758;23;20206;-75
2023/10/30 07:51:54;;;;;;;11.93;2.63;;;;;;;13.65;79.94;99273.84;6152891;23;20206;-75
2023/10/30 07:54:22;;;;;;;6.77;2.43;;;;;;;14.14;78.35;99268.53;6146179;23;20206;-78
2023/10/30 07:56:49;;;;;;;11.80;2.90;;;;;;;15.33;73.73;99272.00;6152966;23;20212;-78
2023/10/30 07:59:16;;;;;;;9.00;2.10;;;;;;;16.56;67.29;99267.91;6149161;23;20210;-75
2023/10/30 08:01:45;;;;;;;7.80;2.80;;;;;;;16.91;65.59;99269.47;6139459;23;20256;-77
2023/10/30 08:04:11;;;;;;;7.70;2.43;;;;;;;18.23;60.80;99278.88;6098811;23;20202;-77
2023/10/30 08:06:38;;;;;;;6.67;2.23;;;;;;;20.29;54.33;99274.50;6145431;23;20277;-77
2023/10/30 08:09:05;;;;;;;8.70;2.60;;;;;;;18.97;57.98;99275.28;6140084;23;20224;-75
2023/10/30 08:11:33;;;;;;;5.30;2.20;;;;;;;20.14;53.75;99267.56;6144997;23;20508;-77
2023/10/30 08:14:00;;;;;;;6.80;2.30;;;;;;;19.11;56.30;99268.53;6141252;23;20233;-78
2023/10/30 08:16:27;;;;;;;6.53;2.50;;;;;;;19.98;53.85;99265.56;6145225;23;20202;-77
2023/10/30 08:18:53;;;;;;;7.17;2.37;;;;;;;21.17;51.68;99264.28;6142672;23;20206;-75
2023/10/30 08:21:20;;;;;;;6.37;2.30;;;;;;;22.38;46.95;99261.31;6147039;23;20539;-77
2023/10/30 08:23:47;;;;;;;6.17;2.17;;;;;;;22.60;46.99;99275.13;6141474;23;20206;-76
2023/10/30 08:26:13;;;;;;;13.23;2.60;;;;;;;20.83;50.80;99286.16;6118791;23;20210;-75
2023/10/30 08:28:42;;;;;;;7.10;2.13;;;;;;;21.95;47.86;99284.91;6141533;23;20210;-79
2023/10/30 08:31:09;;;;;;;5.77;2.20;;;;;;;22.00;46.89;99288.56;6144044;23;20680;-76
2023/10/30 08:33:36;;;;;;;7.73;2.23;;;;;;;22.35;46.36;99305.09;6117065;23;20209;-76
2023/10/30 08:36:03;;;;;;;8.93;2.60;;;;;;;23.23;44.65;99302.41;6123502;23;20209;-77
2023/10/30 08:38:34;;;;;;;7.77;2.47;;;;;;;23.23;43.74;99309.84;6120789;23;20202;-76
2023/10/30 08:41:00;;;;;;;5.53;2.03;;;;;;;21.00;48.77;99305.47;6148633;23;20252;-76
2023/10/30 08:43:51;;;;;;;9.47;2.23;;;;;;;20.72;50.39;99304.34;6155819;23;20208;-75
2023/10/30 08:46:20;;;;;;;7.30;2.50;;;;;;;21.42;48.16;99304.34;6135726;23;20556;-77
2023/10/30 08:48:47;;;;;;;14.37;2.80;;;;;;;21.02;48.96;99308.00;6150096;23;20217;-76
2023/10/30 08:51:13;;;;;;;12.53;2.90;;;;;;;21.36;48.29;99294.31;6144390;23;20614;-76
2023/10/30 08:53:42;;;;;;;10.47;2.40;;;;;;;20.17;51.55;99310.22;6143769;23;20304;-75
2023/10/30 08:56:10;;;;;;;6.17;2.30;;;;;;;20.47;50.51;99314.78;6136539;23;20226;-73
2023/10/30 08:58:36;;;;;;;9.73;2.30;;;;;;;18.46;56.29;99316.56;6140907;23;20350;-75
2023/10/30 09:01:03;;;;;;;8.67;2.50;;;;;;;17.60;60.16;99310.75;6132774;23;20284;-76
2023/10/30 09:03:31;;;;;;;6.77;2.30;;;;;;;18.00;59.80;99328.78;6141837;23;20202;-74
2023/10/30 09:05:58;;;;;;;5.40;2.20;;;;;;;17.13;62.48;99330.19;6136077;23;20202;-77
2023/10/30 09:08:25;;;;;;;6.67;2.30;;;;;;;16.77;64.18;99317.84;6141766;23;20237;-75
2023/10/30 09:10:51;;;;;;;7.57;2.20;;;;;;;16.86;64.12;99324.78;6131649;23;20209;-76
2023/10/30 09:13:19;;;;;;;5.70;2.27;;;;;;;16.77;63.93;99326.06;6144156;23;20210;-78
2023/10/30 09:15:45;;;;;;;6.87;2.30;;;;;;;16.56;65.01;99322.56;6141855;23;20210;-78
2023/10/30 09:18:12;;;;;;;7.53;2.23;;;;;;;16.80;64.73;99326.47;6127217;23;20229;-70
2023/10/30 09:20:40;;;;;;;8.10;2.40;;;;;;;16.72;65.62;99339.53;6140301;23;20237;-76
2023/10/30 09:23:07;;;;;;;7.07;2.37;;;;;;;16.72;65.34;99354.06;6138677;23;20272;-77
2023/10/30 09:25:34;;;;;;;6.37;2.73;;;;;;;16.72;65.85;99347.75;6144476;23;20636;-79
2023/10/30 09:28:02;;;;;;;9.07;2.40;;;;;;;16.80;65.82;99350.25;6139309;23;20210;-80
2023/10/30 09:30:32;;;;;;;6.90;2.40;;;;;;;16.31;67.04;99371.56;6141009;23;20230;-81
2023/10/30 09:32:59;;;;;;;6.07;2.57;;;;;;;16.16;67.56;99361.69;6141210;23;20199;-78
2023/10/30 09:35:30;;;;;;;7.57;2.70;;;;;;;16.39;67.94;99365.88;6113211;23;20210;-80
2023/10/30 09:37:56;;;;;;;10.87;3.30;;;;;;;16.41;67.08;99365.66;6142010;23;20423;-79
2023/10/30 09:40:27;;;;;;;7.57;3.03;;;;;;;16.20;68.02;99370.31;6139694;23;20277;-76
2023/10/30 09:42:55;;;;;;;7.23;2.40;;;;;;;16.07;67.96;99375.78;6142460;23;20202;-76
2023/10/30 09:45:26;;;;;;;4.87;2.10;;;;;;;15.94;68.37;99388.34;6137516;23;20233;-74
2023/10/30 09:47:55;;;;;;;8.37;2.43;;;;;;;16.18;68.19;99385.22;6120560;23;20253;-75
2023/10/30 09:50:23;;;;;;;8.83;2.40;;;;;;;15.95;68.89;99391.94;6113413;23;20256;-76
2023/10/30 09:52:54;;;;;;;7.97;2.47;;;;;;;15.80;68.30;99395.66;6120679;23;20206;-76
2023/10/30 09:55:24;;;;;;;6.37;2.33;;;;;;;15.61;68.71;99383.66;6111453;23;20284;-76
2023/10/30 09:57:52;;;;;;;5.87;2.20;;;;;;;15.70;67.87;99389.75;6142424;23;20606;-74
2023/10/30 10:00:20;;;;;;;7.27;2.33;;;;;;;15.76;68.78;99372.56;6125719;23;20209;-73
2023/10/30 10:02:47;;;;;;;9.80;2.10;;;;;;;15.83;68.10;99378.88;6144614;23;20520;-77
2023/10/30 10:05:18;;;;;;;7.13;1.90;;;;;;;15.93;67.96;99385.84;6146885;23;20610;-75
2023/10/30 10:07:46;;;;;;;8.13;2.40;;;;;;;15.79;68.79;99379.47;6141633;23;20232;-77
2023/10/30 10:10:17;;;;;;;7.83;2.63;;;;;;;15.87;68.75;99382.03;6143996;23;20202;-80
2023/10/30 10:12:48;;;;;;;10.37;2.60;;;;;;;15.92;68.43;99381.41;6153019;23;20476;-77
2023/10/30 10:15:17;;;;;;;6.53;2.23;;;;;;;15.95;68.28;99391.94;6143711;23;20280;-80
2023/10/30 10:17:45;;;;;;;6.23;2.17;;;;;;;16.01;68.38;99396.56;6143198;23;20296;-70
2023/10/30 10:20:12;;;;;;;7.83;2.27;;;;;;;16.18;67.77;99405.16;6140914;23;20210;-68
2023/10/30 10:22:39;;;;;;;5.83;2.40;;;;;;;16.10;68.03;99397.19;6141574;23;20206;-77
2023/10/30 10:25:15;;;;;;;11.90;2.33;;;;;;;15.87;68.36;99408.50;6143049;23;20213;-81
2023/10/30 10:27:43;;;;;;;7.30;2.27;;;;;;;15.60;69.83;99405.66;6142758;23;20210;-77
2023/10/30 10:30:10;;;;;;;7.03;2.60;;;;;;;15.64;70.10;99407.78;6140675;23;20256;-76
2023/10/30 10:32:37;;;;;;;6.67;2.20;;;;;;;15.67;69.74;99407.38;6143275;23;20256;-77
2023/10/30 10:35:07;;;;;;;5.47;2.10;;;;;;;15.62;70.17;99398.13;6142440;23;20218;-79
2023/10/30 10:37:34;;;;;;;8.70;3.53;;;;;;;15.64;69.65;99388.69;6142828;23;20767;-80
2023/10/30 10:40:05;;;;;;;8.97;2.40;;;;;;;15.59;70.11;99384.94;6131600;23;20214;-71
2023/10/30 10:42:33;;;;;;;5.57;1.97;;;;;;;15.72;69.02;99386.81;6148354;23;20213;-72
2023/10/30 10:45:01;;;;;;;4.97;2.40;;;;;;;15.79;69.38;99374.03;6141552;23;20599;-70
2023/10/30 10:47:28;;;;;;;8.00;2.07;;;;;;;15.73;70.34;99362.06;6145569;23;20277;-82
2023/10/30 10:50:08;;;;;;;10.17;2.37;;;;;;;15.72;70.33;99370.44;6150836;23;20492;-78
2023/10/30 10:52:43;;;;;;;10.83;2.40;;;;;;;15.67;71.04;99363.72;6148404;23;20218;-77
2023/10/30 10:55:18;;;;;;;6.17;2.43;;;;;;;15.65;70.60;99359.53;6140417;23;20553;-77
2023/10/30 10:57:51;;;;;;;7.03;2.07;;;;;;;15.62;70.52;99366.25;6142019;23;20609;-78
2023/10/30 11:00:18;;;;;;;9.07;3.03;;;;;;;15.93;69.19;99370.31;6145498;23;20211;-77
2023/10/30 11:02:51;;;;;;;6.90;2.37;;;;;;;15.80;68.89;99362.91;6147838;23;20202;-78
2023/10/30 11:05:18;;;;;;;5.50;2.03;;;;;;;15.69;69.12;99372.56;6146852;23;20206;-79
2023/10/30 11:07:58;;;;;;;7.57;1.90;;;;;;;15.65;69.47;99379.47;6141249;23;20205;-77
2023/10/30 11:10:31;;;;;;;5.57;1.80;;;;;;;15.59;69.94;99380.28;6146290;23;20202;-77
2023/10/30 11:13:30;;;;;;;7.57;2.63;;;;;;;15.50;70.14;99363.28;6125146;23;20329;-78
2023/10/30 11:16:30;;;;;;;8.33;2.17;;;;;;;15.64;69.86;99369.59;6140707;23;20205;-78
2023/10/30 11:18:58;;;;;;;4.17;2.00;;;;;;;15.77;69.36;99370.69;6145527;23;20221;-82
2023/10/30 11:21:26;;;;;;;6.93;2.20;;;;;;;15.90;69.27;99370.72;6139513;23;20214;-80
2023/10/30 11:23:58;;;;;;;11.93;2.27;;;;;;;15.99;69.03;99374.94;6143592;23;20701;-72
2023/10/30 11:26:36;;;;;;;4.97;2.20;;;;;;;16.10;67.75;99378.06;6150779;23;20277;-76
2023/10/30 11:29:09;;;;;;;7.03;2.27;;;;;;;16.18;67.79;99377.84;6145110;23;20234;-75
2023/10/30 11:32:01;;;;;;;6.03;2.20;;;;;;;16.14;67.64;99382.06;6147998;23;20210;-76
2023/10/30 11:34:37;;;;;;;7.60;2.00;;;;;;;16.30;66.84;99387.13;6151456;23;20205;-76
2023/10/30 11:37:12;;;;;;;7.67;1.80;;;;;;;16.34;65.15;99392.13;6150343;23;20210;-77
2023/10/30 11:39:43;;;;;;;4.27;1.70;;;;;;;16.24;65.65;99381.66;6130981;23;20227;-75
2023/10/30 11:42:22;;;;;;;5.10;1.93;;;;;;;16.28;65.49;99378.28;6142936;23;20210;-75
2023/10/30 11:45:13;;;;;;;7.57;1.93;;;;;;;16.33;65.57;99377.66;6140768;23;20669;-60
2023/10/30 11:47:49;;;;;;;4.90;1.73;;;;;;;16.36;65.58;99385.41;6153338;23;20473;-81
2023/10/30 11:50:18;;;;;;;3.20;1.50;;;;;;;16.00;66.35;99378.50;6142593;23;20211;-78
2023/10/30 11:52:50;;;;;;;4.67;1.90;;;;;;;16.13;66.87;99361.28;6147049;23;20202;-76